createdAt,value
2022-11-30T00:01:51.166Z,101176.41
2022-11-30T00:04:20.491Z,101176.66
2022-11-30T00:06:49.841Z,101180.94
2022-11-30T00:09:19.097Z,101177.34
2022-11-30T00:11:51.058Z,101181.66
2022-11-30T00:14:21.717Z,101172.13
2022-11-30T00:16:51.038Z,101172.91
2022-11-30T00:19:20.415Z,101175.59
2022-11-30T00:21:49.794Z,101172.97
2022-11-30T00:24:19.134Z,101171.25
2022-11-30T00:26:50.982Z,101176.59
2022-11-30T00:29:20.370Z,101172.38
2022-11-30T00:31:49.670Z,101176.72
2022-11-30T00:34:18.985Z,101171.44
2022-11-30T00:36:48.260Z,101166.31
2022-11-30T00:39:17.551Z,101170.72
2022-11-30T00:41:46.823Z,101168.94
2022-11-30T00:44:18.957Z,101172.38
2022-11-30T00:46:48.276Z,101168.94
2022-11-30T00:49:17.598Z,101167.13
2022-11-30T00:51:46.999Z,101163.59
2022-11-30T00:54:16.275Z,101168.84
2022-11-30T00:56:45.602Z,101168.19
2022-11-30T00:59:15.414Z,101163.94
2022-11-30T01:01:47.550Z,101167.31
2022-11-30T01:04:17.000Z,101164.69
2022-11-30T01:06:46.434Z,101158.50
2022-11-30T01:09:16.040Z,101172.59
2022-11-30T01:11:45.441Z,101176.13
2022-11-30T01:14:14.705Z,101174.50
2022-11-30T01:16:44.008Z,101172.78
2022-11-30T01:19:16.052Z,101182.34
2022-11-30T01:21:45.354Z,101178.00
2022-11-30T01:24:14.775Z,101180.56
2022-11-30T01:26:44.106Z,101183.09
2022-11-30T01:29:13.425Z,101179.53
2022-11-30T01:31:42.762Z,101182.13
2022-11-30T01:34:12.058Z,101179.72
2022-11-30T01:36:44.647Z,101182.16
2022-11-30T01:39:14.264Z,101185.50
2022-11-30T01:41:43.575Z,101185.50
2022-11-30T01:44:29.010Z,101186.34
2022-11-30T01:46:59.375Z,101188.22
2022-11-30T01:49:29.750Z,101192.69
2022-11-30T01:52:02.502Z,101189.28
2022-11-30T01:54:32.732Z,101189.16
2022-11-30T01:57:04.077Z,101189.13
2022-11-30T01:59:33.415Z,101188.25
2022-11-30T02:02:02.694Z,101190.19
2022-11-30T02:04:32.835Z,101195.31
2022-11-30T02:07:05.027Z,101193.56
2022-11-30T02:09:34.362Z,101190.88
2022-11-30T02:12:03.687Z,101194.59
2022-11-30T02:14:34.545Z,101198.13
2022-11-30T02:17:06.084Z,101203.41
2022-11-30T02:19:50.727Z,101203.28
2022-11-30T02:22:25.935Z,101190.97
2022-11-30T02:24:57.836Z,101190.97
2022-11-30T02:27:30.618Z,101195.38
2022-11-30T02:30:03.429Z,101185.03
2022-11-30T02:32:34.135Z,101181.44
2022-11-30T02:35:03.782Z,101192.75
2022-11-30T02:37:33.092Z,101182.22
2022-11-30T02:40:02.635Z,101177.81
2022-11-30T02:42:31.949Z,101182.13
2022-11-30T02:45:03.901Z,101188.41
2022-11-30T02:47:34.081Z,101190.19
2022-11-30T02:50:03.851Z,101190.28
2022-11-30T02:52:33.353Z,101178.94
2022-11-30T02:55:03.601Z,101184.22
2022-11-30T02:57:33.005Z,101190.31
2022-11-30T03:00:06.978Z,101181.63
2022-11-30T03:02:36.373Z,101185.06
2022-11-30T03:05:06.289Z,101180.81
2022-11-30T03:07:35.710Z,101188.72
2022-11-30T03:10:05.062Z,101183.03
2022-11-30T03:12:34.374Z,101187.56
2022-11-30T03:15:06.370Z,101191.13
2022-11-30T03:17:35.678Z,101195.44
2022-11-30T03:20:05.283Z,101204.13
2022-11-30T03:22:34.641Z,101190.22
2022-11-30T03:25:04.031Z,101193.81
2022-11-30T03:27:33.394Z,101195.56
2022-11-30T03:30:02.685Z,101199.06
2022-11-30T03:32:34.598Z,101192.13
2022-11-30T03:35:03.944Z,101198.25
2022-11-30T03:37:33.200Z,101196.56
2022-11-30T03:40:02.518Z,101194.84
2022-11-30T03:42:31.790Z,101201.97
2022-11-30T03:45:01.209Z,101204.50
2022-11-30T03:47:30.530Z,101208.97
2022-11-30T03:50:02.392Z,101213.34
2022-11-30T03:52:31.787Z,101209.88
2022-11-30T03:55:01.073Z,101216.00
2022-11-30T03:57:30.362Z,101222.19
2022-11-30T03:59:59.629Z,101213.34
2022-11-30T04:02:28.990Z,101216.94
2022-11-30T04:04:58.310Z,101215.34
2022-11-30T04:07:30.230Z,101220.53
2022-11-30T04:10:02.692Z,101229.13
2022-11-30T04:12:34.621Z,101231.00
2022-11-30T04:15:03.918Z,101233.75
2022-11-30T04:17:33.254Z,101239.03
2022-11-30T04:20:02.525Z,101243.38
2022-11-30T04:22:34.428Z,101243.41
2022-11-30T04:25:03.783Z,101238.88
2022-11-30T04:27:33.210Z,101238.84
2022-11-30T04:30:02.512Z,101236.97
2022-11-30T04:32:31.809Z,101246.78
2022-11-30T04:35:01.094Z,101245.94
2022-11-30T04:37:30.458Z,101243.34
2022-11-30T04:40:02.509Z,101239.88
2022-11-30T04:42:31.829Z,101238.09
2022-11-30T04:45:01.142Z,101233.72
2022-11-30T04:47:30.447Z,101240.84
2022-11-30T04:49:59.891Z,101239.19
2022-11-30T04:52:29.288Z,101245.28
2022-11-30T04:54:58.574Z,101235.69
2022-11-30T04:57:30.559Z,101246.13
2022-11-30T04:59:59.888Z,101242.53
2022-11-30T05:02:29.182Z,101240.84
2022-11-30T05:04:58.466Z,101246.09
2022-11-30T05:07:27.747Z,101252.16
2022-11-30T05:09:57.145Z,101254.06
2022-11-30T05:12:26.623Z,101255.03
2022-11-30T05:14:58.597Z,101255.84
2022-11-30T05:17:27.993Z,101260.31
2022-11-30T05:19:57.282Z,101262.94
2022-11-30T05:22:26.572Z,101261.09
2022-11-30T05:24:55.883Z,101257.47
2022-11-30T05:27:25.154Z,101261.84
2022-11-30T05:29:54.475Z,101248.75
2022-11-30T05:32:26.317Z,101249.97
2022-11-30T05:34:55.952Z,101249.91
2022-11-30T05:37:25.330Z,101263.84
2022-11-30T05:39:54.623Z,101260.50
2022-11-30T05:42:24.117Z,101260.50
2022-11-30T05:44:53.589Z,101258.72
2022-11-30T05:47:22.869Z,101262.09
2022-11-30T05:49:54.733Z,101254.19
2022-11-30T05:52:24.246Z,101260.34
2022-11-30T05:54:53.645Z,101257.63
2022-11-30T05:57:22.996Z,101258.47
2022-11-30T05:59:52.285Z,101261.06
2022-11-30T06:02:26.702Z,101261.09
2022-11-30T06:05:00.196Z,101269.63
2022-11-30T06:07:29.595Z,101261.72
2022-11-30T06:09:59.081Z,101268.59
2022-11-30T06:12:28.451Z,101270.16
2022-11-30T06:14:57.764Z,101262.28
2022-11-30T06:17:27.184Z,101264.91
2022-11-30T06:19:56.547Z,101259.63
2022-11-30T06:22:28.466Z,101262.34
2022-11-30T06:24:57.914Z,101270.19
2022-11-30T06:27:27.202Z,101265.78
2022-11-30T06:29:56.547Z,101258.91
2022-11-30T06:32:25.829Z,101258.94
2022-11-30T06:34:55.335Z,101268.53
2022-11-30T06:37:24.601Z,101270.38
2022-11-30T06:40:06.348Z,101269.53
2022-11-30T06:42:36.613Z,101269.63
2022-11-30T06:45:06.169Z,101266.97
2022-11-30T06:47:35.476Z,101277.44
2022-11-30T06:50:04.878Z,101271.31
2022-11-30T06:52:34.412Z,101272.28
2022-11-30T06:55:06.538Z,101275.78
2022-11-30T06:57:35.913Z,101272.31
2022-11-30T07:00:05.899Z,101274.91
2022-11-30T07:02:35.400Z,101275.72
2022-11-30T07:05:04.676Z,101279.28
2022-11-30T07:07:34.038Z,101275.75
2022-11-30T07:10:05.945Z,101280.06
2022-11-30T07:12:37.318Z,101281.81
2022-11-30T07:15:07.102Z,101285.31
2022-11-30T07:17:36.410Z,101283.59
2022-11-30T07:20:06.217Z,101286.09
2022-11-30T07:22:35.546Z,101294.78
2022-11-30T07:25:32.621Z,101286.88
2022-11-30T07:28:02.277Z,101286.00
2022-11-30T07:30:31.579Z,101289.47
2022-11-30T07:33:00.954Z,101295.59
2022-11-30T07:35:30.264Z,101300.88
2022-11-30T07:37:59.553Z,101303.59
2022-11-30T07:40:31.473Z,101296.53
2022-11-30T07:43:00.857Z,101303.53
2022-11-30T07:45:30.203Z,101315.00
2022-11-30T07:48:01.279Z,101316.63
2022-11-30T07:50:30.865Z,101316.69
2022-11-30T07:53:00.163Z,101320.22
2022-11-30T07:55:32.126Z,101324.53
2022-11-30T07:58:01.515Z,101327.13
2022-11-30T08:00:30.814Z,101325.34
2022-11-30T08:03:00.170Z,101327.97
2022-11-30T08:05:29.467Z,101325.19
2022-11-30T08:07:59.044Z,101329.47
2022-11-30T08:10:28.439Z,101327.97
2022-11-30T08:13:00.320Z,101327.91
2022-11-30T08:15:32.945Z,101336.94
2022-11-30T08:18:06.925Z,101337.81
2022-11-30T08:20:36.348Z,101341.31
2022-11-30T08:23:05.659Z,101333.50
2022-11-30T08:25:36.677Z,101340.59
2022-11-30T08:28:08.755Z,101347.56
2022-11-30T08:30:38.186Z,101342.34
2022-11-30T08:33:07.514Z,101343.16
2022-11-30T08:35:36.862Z,101344.91
2022-11-30T08:38:06.156Z,101345.72
2022-11-30T08:40:35.747Z,101347.47
2022-11-30T08:43:05.049Z,101354.41
2022-11-30T08:45:37.029Z,101350.88
2022-11-30T08:48:06.641Z,101351.81
2022-11-30T08:50:36.073Z,101355.31
2022-11-30T08:53:06.587Z,101359.66
2022-11-30T08:55:35.970Z,101362.25
2022-11-30T08:58:05.264Z,101363.16
2022-11-30T09:00:37.118Z,101372.72
2022-11-30T09:03:06.747Z,101369.25
2022-11-30T09:05:36.186Z,101368.31
2022-11-30T09:08:05.926Z,101376.19
2022-11-30T09:10:35.303Z,101377.84
2022-11-30T09:13:04.614Z,101380.41
2022-11-30T09:15:33.926Z,101379.63
2022-11-30T09:18:05.974Z,101379.69
2022-11-30T09:20:36.056Z,101379.69
2022-11-30T09:23:05.339Z,101384.91
2022-11-30T09:25:34.607Z,101376.19
2022-11-30T09:28:06.827Z,101375.31
2022-11-30T09:30:40.332Z,101381.41
2022-11-30T09:33:12.221Z,101371.81
2022-11-30T09:35:41.530Z,101383.22
2022-11-30T09:38:10.831Z,101379.72
2022-11-30T09:40:40.159Z,101375.31
2022-11-30T09:43:09.978Z,101387.53
2022-11-30T09:45:39.326Z,101380.56
2022-11-30T09:48:23.486Z,101378.81
2022-11-30T09:50:55.514Z,101373.56
2022-11-30T09:53:29.504Z,101371.78
2022-11-30T09:55:59.266Z,101378.78
2022-11-30T09:58:31.357Z,101370.88
2022-11-30T10:01:06.574Z,101382.19
2022-11-30T10:03:36.798Z,101376.19
2022-11-30T10:06:09.575Z,101371.81
2022-11-30T10:08:47.399Z,101369.34
2022-11-30T10:11:23.799Z,101377.16
2022-11-30T10:13:56.855Z,101376.28
2022-11-30T10:16:27.403Z,101380.66
2022-11-30T10:18:58.344Z,101371.91
2022-11-30T10:21:38.035Z,101372.75
2022-11-30T10:24:10.987Z,101377.13
2022-11-30T10:26:40.794Z,101378.91
2022-11-30T10:29:13.846Z,101379.75
2022-11-30T10:31:43.123Z,101382.34
2022-11-30T10:34:22.497Z,101380.59
2022-11-30T10:36:56.235Z,101379.75
2022-11-30T10:39:27.171Z,101379.66
2022-11-30T10:41:56.883Z,101377.81
2022-11-30T10:44:27.403Z,101374.38
2022-11-30T10:46:58.532Z,101370.91
2022-11-30T10:49:27.898Z,101371.78
2022-11-30T10:52:00.864Z,101367.41
2022-11-30T10:54:32.155Z,101366.59
2022-11-30T10:57:01.849Z,101363.09
2022-11-30T10:59:34.139Z,101364.84
2022-11-30T11:02:03.536Z,101359.66
2022-11-30T11:04:32.933Z,101356.16
2022-11-30T11:07:09.801Z,101360.56
2022-11-30T11:09:40.120Z,101358.75
2022-11-30T11:12:17.735Z,101357.94
2022-11-30T11:14:47.371Z,101358.81
2022-11-30T11:17:26.170Z,101356.94
2022-11-30T11:19:55.595Z,101354.41
2022-11-30T11:22:27.907Z,101358.69
2022-11-30T11:24:58.642Z,101349.97
2022-11-30T11:27:31.084Z,101353.44
2022-11-30T11:30:04.547Z,101361.25
2022-11-30T11:32:34.376Z,101360.41
2022-11-30T11:35:04.292Z,101361.19
2022-11-30T11:37:41.066Z,101357.69
2022-11-30T11:40:17.070Z,101356.78
2022-11-30T11:42:48.339Z,101355.88
2022-11-30T11:45:19.308Z,101361.09
2022-11-30T11:47:49.185Z,101356.66
2022-11-30T11:50:57.845Z,101351.38
2022-11-30T11:53:25.656Z,101354.81
2022-11-30T11:55:56.552Z,101361.75
2022-11-30T11:58:29.506Z,101359.97
2022-11-30T12:01:23.829Z,101358.25
2022-11-30T12:03:48.699Z,101352.97
2022-11-30T12:06:18.509Z,101363.47
2022-11-30T12:08:52.543Z,101367.81
2022-11-30T12:11:22.830Z,101367.88
2022-11-30T12:13:53.662Z,101366.91
2022-11-30T12:16:27.776Z,101359.09
2022-11-30T12:18:57.735Z,101368.78
2022-11-30T12:21:28.632Z,101366.91
2022-11-30T12:24:06.625Z,101371.16
2022-11-30T12:26:37.554Z,101371.28
2022-11-30T12:29:22.033Z,101367.81
2022-11-30T12:31:55.677Z,101364.22
2022-11-30T12:34:26.509Z,101371.22
2022-11-30T12:36:56.943Z,101366.78
2022-11-30T12:39:30.573Z,101360.69
2022-11-30T12:42:01.188Z,101367.69
2022-11-30T12:44:42.106Z,101372.00
2022-11-30T12:47:18.537Z,101372.91
2022-11-30T12:49:52.262Z,101368.41
2022-11-30T12:52:25.305Z,101378.88
2022-11-30T12:54:58.482Z,101370.16
2022-11-30T12:57:28.893Z,101377.19
2022-11-30T13:00:00.248Z,101384.28
2022-11-30T13:02:47.537Z,101383.38
2022-11-30T13:05:17.862Z,101379.00
2022-11-30T13:07:47.929Z,101383.38
2022-11-30T13:10:24.497Z,101383.41
2022-11-30T13:12:54.413Z,101386.09
2022-11-30T13:15:24.243Z,101389.66
2022-11-30T13:17:53.631Z,101386.09
2022-11-30T13:20:24.107Z,101385.16
2022-11-30T13:22:53.791Z,101385.09
2022-11-30T13:25:59.733Z,101383.38
2022-11-30T13:28:21.796Z,101377.28
2022-11-30T13:30:51.523Z,101385.16
2022-11-30T13:33:41.808Z,101386.03
2022-11-30T13:36:23.976Z,101384.38
2022-11-30T13:39:08.278Z,101384.34
2022-11-30T13:41:40.224Z,101385.34
2022-11-30T13:44:18.013Z,101381.91
2022-11-30T13:46:50.615Z,101385.47
2022-11-30T13:49:22.157Z,101383.66
2022-11-30T13:52:20.007Z,101388.91
2022-11-30T13:54:44.385Z,101391.63
2022-11-30T13:57:43.059Z,101382.88
2022-11-30T14:00:27.687Z,101384.56
2022-11-30T14:03:00.652Z,101386.28
2022-11-30T14:05:40.810Z,101391.66
2022-11-30T14:08:15.517Z,101386.41
2022-11-30T14:10:45.527Z,101403.00
2022-11-30T14:13:30.798Z,101397.78
2022-11-30T14:16:00.849Z,101401.28
2022-11-30T14:18:41.339Z,101398.66
2022-11-30T14:21:16.407Z,101391.75
2022-11-30T14:23:46.709Z,101398.75
2022-11-30T14:26:16.670Z,101398.78
2022-11-30T14:28:47.030Z,101396.19
2022-11-30T14:31:18.551Z,101405.88
2022-11-30T14:33:51.272Z,101402.34
2022-11-30T14:36:20.649Z,101408.44
2022-11-30T14:38:49.997Z,101408.44
2022-11-30T14:41:22.893Z,101408.47
2022-11-30T14:44:05.610Z,101410.25
2022-11-30T14:46:36.374Z,101411.94
2022-11-30T14:49:13.881Z,101411.97
2022-11-30T14:51:43.292Z,101411.09
2022-11-30T14:54:16.243Z,101419.84
2022-11-30T14:56:46.907Z,101416.38
2022-11-30T14:59:21.775Z,101419.00
2022-11-30T15:01:51.174Z,101413.75
2022-11-30T15:04:23.142Z,101405.88
2022-11-30T15:06:52.706Z,101411.13
2022-11-30T15:09:22.568Z,101417.19
2022-11-30T15:11:52.223Z,101415.47
2022-11-30T15:14:21.545Z,101428.63
2022-11-30T15:16:53.130Z,101422.56
2022-11-30T15:19:26.357Z,101422.41
2022-11-30T15:21:56.263Z,101418.88
2022-11-30T15:24:25.556Z,101420.72
2022-11-30T15:26:56.227Z,101428.53
2022-11-30T15:29:27.269Z,101426.03
2022-11-30T15:31:57.233Z,101428.47
2022-11-30T15:34:32.960Z,101433.94
2022-11-30T15:37:02.459Z,101427.97
2022-11-30T15:39:32.627Z,101433.19
2022-11-30T15:42:02.611Z,101441.00
2022-11-30T15:44:40.952Z,101439.19
2022-11-30T15:47:11.139Z,101445.34
2022-11-30T15:49:43.090Z,101439.22
2022-11-30T15:52:18.677Z,101442.75
2022-11-30T15:54:48.973Z,101441.06
2022-11-30T15:57:18.602Z,101449.78
2022-11-30T15:59:48.469Z,101449.75
2022-11-30T16:02:36.142Z,101446.31
2022-11-30T16:05:24.781Z,101449.84
2022-11-30T16:07:55.442Z,101450.75
2022-11-30T16:10:25.755Z,101456.09
2022-11-30T16:12:55.754Z,101456.03
2022-11-30T16:15:25.995Z,101456.13
2022-11-30T16:17:55.531Z,101459.53
2022-11-30T16:20:27.513Z,101458.69
2022-11-30T16:22:59.979Z,101464.78
2022-11-30T16:25:33.470Z,101465.66
2022-11-30T16:28:02.926Z,101464.75
2022-11-30T16:30:32.527Z,101456.91
2022-11-30T16:33:01.967Z,101470.06
2022-11-30T16:35:37.519Z,101469.19
2022-11-30T16:38:07.413Z,101464.75
2022-11-30T16:40:39.142Z,101470.91
2022-11-30T16:43:08.856Z,101470.84
2022-11-30T16:45:38.804Z,101463.88
2022-11-30T16:48:08.516Z,101463.00
2022-11-30T16:50:41.354Z,101469.94
2022-11-30T16:53:13.160Z,101469.88
2022-11-30T16:55:42.517Z,101466.38
2022-11-30T16:58:12.116Z,101469.06
2022-11-30T17:00:41.852Z,101474.25
2022-11-30T17:03:11.712Z,101469.06
2022-11-30T17:05:43.701Z,101477.84
2022-11-30T17:08:13.026Z,101475.19
2022-11-30T17:10:42.417Z,101474.34
2022-11-30T17:13:12.523Z,101479.56
2022-11-30T17:15:41.856Z,101476.94
2022-11-30T17:18:11.162Z,101483.00
2022-11-30T17:20:43.096Z,101482.09
2022-11-30T17:23:12.438Z,101488.28
2022-11-30T17:25:41.701Z,101486.47
2022-11-30T17:28:11.040Z,101485.50
2022-11-30T17:30:40.416Z,101481.16
2022-11-30T17:33:09.799Z,101490.84
2022-11-30T17:35:43.735Z,101491.72
2022-11-30T17:38:13.104Z,101495.22
2022-11-30T17:40:43.232Z,101489.06
2022-11-30T17:43:12.550Z,101501.28
2022-11-30T17:45:42.761Z,101503.88
2022-11-30T17:48:12.114Z,101501.28
2022-11-30T17:50:44.117Z,101498.59
2022-11-30T17:53:17.962Z,101508.22
2022-11-30T17:55:47.655Z,101513.47
2022-11-30T17:58:16.962Z,101516.94
2022-11-30T18:00:46.307Z,101516.03
2022-11-30T18:03:15.614Z,101521.50
2022-11-30T18:05:47.533Z,101520.66
2022-11-30T18:08:17.118Z,101521.53
2022-11-30T18:10:47.747Z,101522.41
2022-11-30T18:13:17.098Z,101526.69
2022-11-30T18:15:46.404Z,101530.19
2022-11-30T18:18:15.694Z,101537.16
2022-11-30T18:20:47.630Z,101524.88
2022-11-30T18:23:16.982Z,101525.97
2022-11-30T18:25:46.251Z,101532.06
2022-11-30T18:28:15.602Z,101534.72
2022-11-30T18:30:44.997Z,101538.13
2022-11-30T18:33:14.454Z,101542.50
2022-11-30T18:35:43.756Z,101545.09
2022-11-30T18:38:15.738Z,101539.91
2022-11-30T18:40:45.289Z,101537.34
2022-11-30T18:43:14.618Z,101539.09
2022-11-30T18:45:43.921Z,101531.25
2022-11-30T18:48:13.263Z,101537.31
2022-11-30T18:50:42.592Z,101540.78
2022-11-30T18:53:16.691Z,101539.13
2022-11-30T18:55:50.289Z,101539.19
2022-11-30T18:58:19.695Z,101545.28
2022-11-30T19:00:49.053Z,101537.44
2022-11-30T19:03:18.590Z,101540.91
2022-11-30T19:05:47.899Z,101536.56
2022-11-30T19:08:17.312Z,101541.78
2022-11-30T19:10:46.654Z,101535.75
2022-11-30T19:13:18.756Z,101539.28
2022-11-30T19:15:48.127Z,101541.91
2022-11-30T19:18:22.912Z,101544.59
2022-11-30T19:20:52.784Z,101547.19
2022-11-30T19:23:22.105Z,101557.75
2022-11-30T19:25:51.429Z,101556.81
2022-11-30T19:28:23.487Z,101554.19
2022-11-30T19:30:52.879Z,101556.78
2022-11-30T19:33:22.206Z,101557.69
2022-11-30T19:35:51.537Z,101557.72
2022-11-30T19:38:20.950Z,101559.47
2022-11-30T19:40:50.361Z,101560.31
2022-11-30T19:43:19.689Z,101561.25
2022-11-30T19:45:51.672Z,101567.31
2022-11-30T19:48:21.149Z,101571.63
2022-11-30T19:50:50.514Z,101569.97
2022-11-30T19:53:20.354Z,101572.56
2022-11-30T19:55:49.641Z,101570.84
2022-11-30T19:58:19.107Z,101566.47
2022-11-30T20:00:51.016Z,101567.31
2022-11-30T20:03:20.406Z,101570.75
2022-11-30T20:05:53.163Z,101576.00
2022-11-30T20:08:22.524Z,101576.88
2022-11-30T20:10:51.903Z,101580.38
2022-11-30T20:13:21.459Z,101579.53
2022-11-30T20:15:53.447Z,101572.56
2022-11-30T20:18:22.830Z,101580.38
2022-11-30T20:20:52.119Z,101581.28
2022-11-30T20:23:21.445Z,101577.81
2022-11-30T20:25:50.753Z,101581.34
2022-11-30T20:28:20.118Z,101579.59
2022-11-30T20:30:49.548Z,101581.31
2022-11-30T20:33:21.507Z,101584.81
2022-11-30T20:35:50.984Z,101576.06
2022-11-30T20:38:20.402Z,101586.50
2022-11-30T20:40:49.814Z,101583.91
2022-11-30T20:43:19.239Z,101588.28
2022-11-30T20:45:48.676Z,101592.69
2022-11-30T20:48:18.147Z,101593.53
2022-11-30T20:51:14.052Z,101592.72
2022-11-30T20:53:39.463Z,101589.22
2022-11-30T20:56:09.007Z,101586.59
2022-11-30T20:58:38.502Z,101588.34
2022-11-30T21:01:12.149Z,101584.84
2022-11-30T21:03:41.621Z,101591.81
2022-11-30T21:06:13.721Z,101587.44
2022-11-30T21:08:43.347Z,101590.09
2022-11-30T21:11:13.852Z,101590.97
2022-11-30T21:13:44.228Z,101592.66
2022-11-30T21:16:13.818Z,101591.78
2022-11-30T21:18:43.791Z,101597.94
2022-11-30T21:21:16.520Z,101594.44
2022-11-30T21:23:45.890Z,101588.47
2022-11-30T21:26:17.891Z,101590.19
2022-11-30T21:28:47.385Z,101588.47
2022-11-30T21:31:16.987Z,101585.88
2022-11-30T21:33:52.756Z,101586.72
2022-11-30T21:36:25.646Z,101591.94
2022-11-30T21:39:04.539Z,101585.81
2022-11-30T21:41:35.173Z,101587.53
2022-11-30T21:44:04.573Z,101582.34
2022-11-30T21:46:33.972Z,101584.94
2022-11-30T21:49:03.397Z,101580.63
2022-11-30T21:51:35.501Z,101581.44
2022-11-30T21:54:05.635Z,101581.44
2022-11-30T21:56:35.692Z,101585.84
2022-11-30T21:59:06.313Z,101585.00
2022-11-30T22:01:36.424Z,101586.72
2022-11-30T22:04:06.485Z,101587.63
2022-11-30T22:06:39.176Z,101588.47
2022-11-30T22:09:10.313Z,101583.31
2022-11-30T22:11:40.198Z,101587.63
2022-11-30T22:14:09.803Z,101588.47
2022-11-30T22:16:39.202Z,101579.75
2022-11-30T22:19:08.848Z,101580.63
2022-11-30T22:21:44.102Z,101580.59
2022-11-30T22:24:16.330Z,101585.88
2022-11-30T22:26:46.179Z,101584.13
2022-11-30T22:29:16.379Z,101583.22
2022-11-30T22:31:46.683Z,101584.97
2022-11-30T22:34:16.102Z,101591.09
2022-11-30T22:36:48.274Z,101585.88
2022-11-30T22:39:18.405Z,101587.59
2022-11-30T22:41:54.278Z,101587.63
2022-11-30T22:44:25.493Z,101587.63
2022-11-30T22:46:54.861Z,101585.03
2022-11-30T22:49:24.416Z,101578.91
2022-11-30T22:51:56.383Z,101585.91
2022-11-30T22:54:25.750Z,101589.44
2022-11-30T22:56:55.054Z,101586.72
2022-11-30T22:59:24.385Z,101585.91
2022-11-30T23:01:53.681Z,101589.44
2022-11-30T23:04:23.788Z,101592.03
2022-11-30T23:06:55.801Z,101583.25
2022-11-30T23:09:25.519Z,101584.97
2022-11-30T23:11:54.888Z,101583.22
2022-11-30T23:14:24.176Z,101587.56
2022-11-30T23:16:53.479Z,101591.09
2022-11-30T23:19:22.785Z,101577.22
2022-11-30T23:21:52.212Z,101583.31
2022-11-30T23:24:24.311Z,101586.78
2022-11-30T23:26:53.653Z,101590.28
2022-11-30T23:29:22.904Z,101581.53
2022-11-30T23:31:52.306Z,101589.38
2022-11-30T23:34:22.309Z,101597.22
2022-11-30T23:36:51.664Z,101593.78
2022-11-30T23:39:21.686Z,101589.44
2022-11-30T23:41:53.626Z,101593.78
2022-11-30T23:44:23.607Z,101586.81
2022-11-30T23:46:52.964Z,101586.81
2022-11-30T23:49:22.346Z,101593.75
2022-11-30T23:51:51.644Z,101587.66
2022-11-30T23:54:21.042Z,101593.84
2022-11-30T23:56:53.031Z,101603.44
2022-11-30T23:59:22.454Z,101593.78
